Time;durP1;ratioP1;P1;durP2;ratioP2;P2;SDS_P1;SDS_P2;PMS_P1;PMS_P2;Temp;Humidity;BMP_temperature;BMP_pressure;BME280_temperature;BME280_humidity;BME280_pressure;Samples;Min_cycle;Max_cycle;Signal;HPM_P1;HPM_P2
2021/03/17 00:00:00;;;;;;;15.65;3.20;;;;;;;6.70;66.64;102143.00;343767;28;1099;-68
2021/03/17 00:00:12;;;;;;;16.08;3.35;;;;;;;6.75;67.45;102146.47;343813;28;1861;-68
2021/03/17 00:00:24;;;;;;;19.42;3.60;;;;;;;6.76;67.77;102137.72;342672;28;1058;-69
2021/03/17 00:00:36;;;;;;;19.20;3.60;;;;;;;6.77;67.27;102139.44;342634;28;1095;-68
2021/03/17 00:00:48;;;;;;;17.88;3.42;;;;;;;6.73;66.13;102148.22;342589;28;1118;-69
2021/03/17 00:01:00;;;;;;;16.40;3.18;;;;;;;6.75;67.10;102147.34;342469;28;1175;-68
2021/03/17 00:01:11;;;;;;;16.08;3.10;;;;;;;6.80;67.27;102142.06;342591;28;1240;-68
2021/03/17 00:01:23;;;;;;;14.98;2.90;;;;;;;6.76;66.34;102140.34;342708;28;1162;-68
2021/03/17 00:01:34;;;;;;;14.93;3.15;;;;;;;6.78;66.85;102143.81;342646;28;1135;-68
2021/03/17 00:01:45;;;;;;;15.68;3.35;;;;;;;6.78;66.65;102142.06;342689;28;1067;-67
2021/03/17 00:01:57;;;;;;;16.75;3.38;;;;;;;6.81;66.75;102143.78;342543;28;1107;-68
2021/03/17 00:02:09;;;;;;;15.85;3.13;;;;;;;6.84;67.04;102146.41;343402;28;1750;-68
2021/03/17 00:02:21;;;;;;;15.27;2.85;;;;;;;6.89;66.74;102141.09;343482;28;1144;-69
2021/03/17 00:02:32;;;;;;;14.88;2.80;;;;;;;6.90;67.47;102141.09;344005;28;1101;-68
2021/03/17 00:02:44;;;;;;;18.90;3.00;;;;;;;6.90;67.04;102141.09;343852;28;1110;-68
2021/03/17 00:02:55;;;;;;;18.70;3.03;;;;;;;6.90;67.23;102146.34;343933;28;1142;-68
2021/03/17 00:03:07;;;;;;;19.00;3.30;;;;;;;6.89;66.76;102147.22;343873;28;1175;-69
2021/03/17 00:03:18;;;;;;;17.65;3.47;;;;;;;6.89;66.40;102143.72;343901;28;1356;-69
2021/03/17 00:03:30;;;;;;;17.15;3.50;;;;;;;6.89;67.30;102141.97;343954;28;1972;-70
2021/03/17 00:03:41;;;;;;;16.67;3.50;;;;;;;6.87;66.76;102149.00;343898;28;1098;-68
2021/03/17 00:03:53;;;;;;;16.67;3.42;;;;;;;6.85;66.01;102145.50;343942;28;1121;-67
2021/03/17 00:04:04;;;;;;;15.73;3.15;;;;;;;6.85;67.07;102144.63;343960;28;1129;-69
2021/03/17 00:04:15;;;;;;;15.90;3.35;;;;;;;6.90;67.04;102137.59;343939;28;1132;-69
2021/03/17 00:04:26;;;;;;;17.85;3.30;;;;;;;6.87;66.67;102145.47;343926;28;1225;-68
2021/03/17 00:04:37;;;;;;;17.92;3.20;;;;;;;6.85;66.43;102144.63;343937;28;1074;-68
2021/03/17 00:04:49;;;;;;;18.63;3.05;;;;;;;6.86;66.31;102144.63;343951;28;1090;-68
2021/03/17 00:05:00;;;;;;;19.70;3.45;;;;;;;6.81;66.32;102140.31;343937;28;1137;-68
2021/03/17 00:05:11;;;;;;;20.17;3.70;;;;;;;6.81;66.21;102141.16;344017;28;1240;-68
2021/03/17 00:05:31;;;;;;;18.42;3.60;;;;;;;6.82;66.75;102140.28;342644;28;1059;-68
2021/03/17 00:05:44;;;;;;;12.70;3.03;;;;;;;6.85;67.22;102148.13;340298;28;70585;-68
2021/03/17 00:05:56;;;;;;;15.55;3.17;;;;;;;6.84;66.02;102142.88;342598;28;1269;-68
2021/03/17 00:06:08;;;;;;;17.80;3.17;;;;;;;6.79;66.04;102154.31;342729;28;2514;-69
2021/03/17 00:06:19;;;;;;;17.88;3.10;;;;;;;6.76;65.73;102140.34;342618;28;1090;-67
2021/03/17 00:06:30;;;;;;;15.73;2.80;;;;;;;6.69;65.89;102143.88;342988;28;1710;-65
2021/03/17 00:06:41;;;;;;;15.60;3.08;;;;;;;6.75;66.78;102146.47;343970;28;1125;-68
2021/03/17 00:06:52;;;;;;;16.63;3.53;;;;;;;6.79;66.51;102146.44;343952;28;1046;-67
2021/03/17 00:07:04;;;;;;;18.17;3.78;;;;;;;6.80;66.16;102144.69;343871;28;1934;-68
2021/03/17 00:07:15;;;;;;;17.80;3.58;;;;;;;6.80;66.79;102139.44;343831;28;1675;-67
2021/03/17 00:07:26;;;;;;;15.38;3.03;;;;;;;6.84;67.21;102148.13;344727;28;1758;-68
2021/03/17 00:07:37;;;;;;;17.52;3.17;;;;;;;6.89;67.27;102148.97;345532;28;860;-67
2021/03/17 00:07:48;;;;;;;18.83;3.38;;;;;;;6.89;67.37;102143.72;345335;28;1058;-66
2021/03/17 00:08:00;;;;;;;20.20;3.55;;;;;;;6.91;67.70;102142.84;345416;28;1132;-68
2021/03/17 00:08:11;;;;;;;21.95;3.72;;;;;;;6.95;67.46;102146.28;345385;28;1081;-67
2021/03/17 00:08:22;;;;;;;21.75;3.72;;;;;;;6.95;67.59;102146.28;345350;28;1159;-67
2021/03/17 00:08:34;;;;;;;18.83;3.28;;;;;;;6.99;68.62;102145.38;345477;28;1073;-68
2021/03/17 00:08:45;;;;;;;18.60;3.38;;;;;;;7.03;68.01;102146.22;345488;28;1160;-69
2021/03/17 00:08:56;;;;;;;17.48;3.40;;;;;;;7.03;67.68;102143.59;345454;28;1150;-67
2021/03/17 00:09:07;;;;;;;16.55;3.35;;;;;;;7.03;67.67;102151.47;345318;28;1364;-66
2021/03/17 00:09:18;;;;;;;17.98;3.30;;;;;;;7.04;67.97;102150.59;345267;28;1589;-67
2021/03/17 00:09:29;;;;;;;17.45;3.30;;;;;;;7.04;68.39;102154.09;344884;28;1729;-65
2021/03/17 00:09:41;;;;;;;16.48;3.35;;;;;;;7.03;66.86;102149.69;344173;28;1829;-67
2021/03/17 00:09:53;;;;;;;16.95;3.33;;;;;;;7.04;67.47;102147.97;343922;28;1118;-66
2021/03/17 00:10:05;;;;;;;16.90;3.40;;;;;;;7.05;67.93;102157.59;343947;28;1142;-67
2021/03/17 00:10:16;;;;;;;15.85;3.35;;;;;;;7.01;66.81;102150.63;343791;28;1208;-67
2021/03/17 00:10:31;;;;;;;19.38;3.42;;;;;;;7.00;66.40;102152.38;343943;28;2152;-66
2021/03/17 00:10:45;;;;;;;20.90;3.70;;;;;;;7.02;67.29;102150.63;341622;28;71850;-67
2021/03/17 00:10:57;;;;;;;17.20;3.65;;;;;;;6.98;66.59;102148.91;343077;28;25268;-66
2021/03/17 00:11:08;;;;;;;16.05;3.33;;;;;;;6.92;66.36;102146.31;343982;28;1062;-68
2021/03/17 00:11:19;;;;;;;16.40;3.25;;;;;;;6.94;66.72;102145.41;343990;28;1106;-67
2021/03/17 00:11:43;;;;;;;18.85;3.38;;;;;;;7.01;67.19;102150.63;341628;28;74700;-69
2021/03/17 00:11:54;;;;;;;19.28;3.20;;;;;;;7.03;67.62;102156.72;343983;28;1627;-68
2021/03/17 00:12:06;;;;;;;20.02;3.35;;;;;;;7.04;67.06;102155.84;343932;28;1266;-67
2021/03/17 00:12:17;;;;;;;17.80;3.28;;;;;;;7.02;67.16;102150.63;344063;28;1163;-67
2021/03/17 00:12:29;;;;;;;16.02;3.35;;;;;;;7.06;67.33;102152.31;344056;28;1285;-68
2021/03/17 00:12:40;;;;;;;13.25;2.92;;;;;;;7.08;66.54;102157.56;344098;28;1074;-67
2021/03/17 00:12:55;;;;;;;12.90;2.80;;;;;;;7.09;67.47;102154.91;344041;28;1109;-70
2021/03/17 00:13:06;;;;;;;14.45;2.85;;;;;;;7.10;67.05;102161.91;343913;28;1088;-68
2021/03/17 00:13:35;;;;;;;17.92;3.20;;;;;;;7.06;66.91;102157.56;344065;28;1132;-67
2021/03/17 00:13:46;;;;;;;17.40;3.45;;;;;;;7.04;66.31;102156.72;341673;28;71299;-66
2021/03/17 00:13:58;;;;;;;17.30;3.25;;;;;;;7.00;66.92;102162.88;345212;28;2044;-68
2021/03/17 00:14:09;;;;;;;15.43;2.90;;;;;;;6.95;66.70;102162.03;345372;28;1860;-67
2021/03/17 00:14:20;;;;;;;15.00;3.08;;;;;;;6.92;66.81;102175.22;345339;28;1339;-69
2021/03/17 00:14:32;;;;;;;16.17;3.30;;;;;;;6.90;66.37;102161.22;345336;28;1235;-68
2021/03/17 00:14:43;;;;;;;16.73;3.28;;;;;;;6.92;67.23;102162.06;345332;28;1188;-68
2021/03/17 00:14:55;;;;;;;15.25;3.03;;;;;;;6.94;66.94;102166.44;345243;28;1081;-68
2021/03/17 00:15:06;;;;;;;15.00;3.10;;;;;;;6.91;67.03;102161.22;345250;28;1090;-67
2021/03/17 00:15:23;;;;;;;15.52;3.25;;;;;;;6.99;67.02;102165.53;345209;28;1182;-68
2021/03/17 00:15:38;;;;;;;17.00;3.40;;;;;;;6.96;66.84;102172.56;342887;28;72246;-68
2021/03/17 00:15:50;;;;;;;15.38;3.38;;;;;;;6.95;67.70;102172.53;343580;28;48130;-68
2021/03/17 00:16:01;;;;;;;15.80;3.33;;;;;;;6.89;66.75;102165.59;344157;28;1085;-66
2021/03/17 00:16:12;;;;;;;14.82;3.00;;;;;;;6.89;67.04;102164.75;344157;28;1062;-68
2021/03/17 00:16:24;;;;;;;16.90;3.28;;;;;;;6.91;66.65;102162.94;344084;28;1074;-68
2021/03/17 00:16:35;;;;;;;16.75;3.40;;;;;;;6.92;66.26;102165.59;344104;28;1094;-67
2021/03/17 00:16:47;;;;;;;16.75;3.38;;;;;;;6.93;67.66;102163.81;343672;28;1871;-66
2021/03/17 00:16:58;;;;;;;17.00;3.26;;;;;;;6.97;67.77;102163.78;344795;28;1819;-66
2021/03/17 00:17:09;;;;;;;17.33;3.22;;;;;;;6.92;67.52;102154.19;345355;28;1078;-66
2021/03/17 00:17:21;;;;;;;16.98;3.15;;;;;;;6.93;66.29;102161.19;345283;28;1205;-67
2021/03/17 00:17:32;;;;;;;14.13;2.90;;;;;;;6.93;67.39;102158.56;345301;28;1061;-67
2021/03/17 00:17:43;;;;;;;13.85;2.90;;;;;;;6.92;66.44;102157.72;345098;28;1224;-68
2021/03/17 00:17:55;;;;;;;14.70;3.05;;;;;;;6.91;66.49;102153.34;345285;28;1066;-69
2021/03/17 00:18:09;;;;;;;15.75;3.03;;;;;;;6.91;66.64;102158.59;345336;28;1223;-66
2021/03/17 00:18:21;;;;;;;15.98;2.97;;;;;;;6.95;67.17;102159.41;343734;28;47155;-67
2021/03/17 00:18:32;;;;;;;15.15;2.90;;;;;;;6.91;66.94;102155.06;345319;28;1099;-67
2021/03/17 00:18:43;;;;;;;17.60;3.08;;;;;;;6.88;66.76;102156.00;345145;28;1021;-67
2021/03/17 00:18:55;;;;;;;18.02;2.90;;;;;;;6.91;66.81;102163.84;345275;28;1054;-67
2021/03/17 00:19:06;;;;;;;18.98;3.00;;;;;;;6.95;67.97;102155.06;345406;28;884;-66
2021/03/17 00:19:18;;;;;;;18.98;3.03;;;;;;;6.99;67.44;102158.50;345262;28;1643;-68
2021/03/17 00:19:29;;;;;;;18.02;3.20;;;;;;;7.00;67.57;102154.13;345213;28;1070;-67
2021/03/17 00:19:40;;;;;;;17.05;3.35;;;;;;;7.04;67.96;102158.47;345226;28;1070;-68
2021/03/17 00:19:51;;;;;;;15.50;3.40;;;;;;;7.02;67.32;102166.38;343911;28;1101;-67
2021/03/17 00:20:08;;;;;;;16.38;3.28;;;;;;;6.97;66.14;102160.28;344525;28;1409;-67
2021/03/17 00:20:19;;;;;;;19.00;3.30;;;;;;;6.92;66.71;102162.97;342894;28;72241;-67
2021/03/17 00:20:32;;;;;;;19.77;3.28;;;;;;;6.94;66.90;102158.56;345114;28;1336;-66
2021/03/17 00:20:44;;;;;;;17.27;2.97;;;;;;;6.91;65.55;102153.34;345317;28;1248;-67
2021/03/17 00:20:55;;;;;;;13.88;2.88;;;;;;;6.87;66.12;102158.63;345211;28;1181;-66
2021/03/17 00:21:06;;;;;;;14.40;3.15;;;;;;;6.86;66.01;102160.38;345350;28;1137;-66
2021/03/17 00:21:17;;;;;;;16.27;3.58;;;;;;;6.89;66.77;102159.50;345314;28;1065;-67
2021/03/17 00:21:28;;;;;;;16.40;3.45;;;;;;;6.95;67.07;102160.31;345192;28;1545;-66
2021/03/17 00:21:39;;;;;;;17.48;3.33;;;;;;;6.99;67.41;102161.13;345273;28;1286;-68
2021/03/17 00:21:50;;;;;;;18.45;3.25;;;;;;;7.04;67.52;102158.47;345344;28;1058;-67
2021/03/17 00:22:01;;;;;;;18.08;3.22;;;;;;;7.00;66.91;102167.28;345289;28;1134;-65
2021/03/17 00:22:13;;;;;;;16.00;3.20;;;;;;;7.01;67.58;102156.75;343973;28;1153;-67
2021/03/17 00:22:24;;;;;;;13.95;3.08;;;;;;;6.97;66.40;102152.41;343793;28;1424;-66
2021/03/17 00:22:35;;;;;;;14.13;3.20;;;;;;;6.95;66.62;102162.03;343857;28;1229;-65
2021/03/17 00:22:46;;;;;;;17.42;3.38;;;;;;;6.99;66.63;102152.38;344002;28;1245;-66
2021/03/17 00:22:58;;;;;;;17.70;3.38;;;;;;;6.98;66.08;102159.41;343884;28;1126;-67
2021/03/17 00:23:09;;;;;;;16.35;3.17;;;;;;;7.01;66.20;102158.50;343862;28;1157;-66
2021/03/17 00:23:20;;;;;;;16.33;3.10;;;;;;;7.00;65.93;102155.00;343877;28;1067;-65
2021/03/17 00:23:32;;;;;;;15.85;3.17;;;;;;;6.99;65.90;102169.00;343869;28;1000;-68
2021/03/17 00:23:43;;;;;;;17.83;3.20;;;;;;;7.03;66.73;102167.22;343967;28;1059;-68
2021/03/17 00:23:54;;;;;;;15.35;3.05;;;;;;;6.97;65.25;102166.41;344025;28;1960;-67
2021/03/17 00:24:07;;;;;;;13.43;2.85;;;;;;;6.93;64.94;102166.44;345312;28;1168;-68
2021/03/17 00:24:18;;;;;;;13.38;3.00;;;;;;;6.91;65.50;102157.69;345201;28;1066;-67
2021/03/17 00:24:29;;;;;;;16.20;3.40;;;;;;;6.93;65.88;102162.06;345304;28;1126;-68
2021/03/17 00:24:40;;;;;;;18.52;3.42;;;;;;;6.97;66.19;102168.16;345338;28;1034;-68
2021/03/17 00:24:53;;;;;;;19.75;3.88;;;;;;;7.01;66.43;102163.78;344420;28;1142;-69
2021/03/17 00:25:05;;;;;;;19.50;3.72;;;;;;;7.01;66.20;102166.41;345330;28;1888;-67
2021/03/17 00:25:21;;;;;;;17.17;3.70;;;;;;;7.01;66.23;102155.88;345211;28;1085;-67
2021/03/17 00:25:40;;;;;;;15.55;3.33;;;;;;;7.04;67.09;102159.34;342950;28;71642;-67
2021/03/17 00:25:52;;;;;;;16.85;3.20;;;;;;;7.04;66.35;102163.72;342973;28;69622;-67
2021/03/17 00:26:04;;;;;;;18.05;3.20;;;;;;;7.06;66.02;102162.84;345293;28;1090;-67
2021/03/17 00:26:15;;;;;;;18.15;3.30;;;;;;;7.03;65.40;102156.72;345242;28;1133;-67
2021/03/17 00:26:26;;;;;;;17.25;3.30;;;;;;;7.04;66.28;102155.84;345200;28;1407;-67
2021/03/17 00:26:37;;;;;;;21.00;3.38;;;;;;;7.01;66.01;102163.78;345199;28;1936;-67
2021/03/17 00:26:48;;;;;;;22.27;3.53;;;;;;;6.94;65.72;102165.56;344748;28;1086;-65
2021/03/17 00:26:59;;;;;;;19.73;3.65;;;;;;;6.94;66.03;102163.81;345184;28;1133;-69
2021/03/17 00:27:11;;;;;;;16.83;3.58;;;;;;;6.92;65.56;102159.44;345136;28;1246;-68
2021/03/17 00:27:22;;;;;;;17.20;3.35;;;;;;;6.95;65.87;102162.03;344899;28;1618;-65
2021/03/17 00:27:33;;;;;;;15.48;3.00;;;;;;;6.97;66.18;102162.91;344093;28;1810;-67
2021/03/17 00:27:44;;;;;;;14.57;3.03;;;;;;;6.94;65.44;102161.19;345280;28;1134;-65
2021/03/17 00:27:56;;;;;;;13.52;3.10;;;;;;;6.87;64.94;102159.50;345278;28;1994;-67
2021/03/17 00:28:08;;;;;;;15.22;3.18;;;;;;;6.83;64.59;102157.78;343871;28;1059;-68
2021/03/17 00:28:20;;;;;;;15.57;3.15;;;;;;;6.85;65.57;102156.00;343975;28;1165;-67
2021/03/17 00:28:31;;;;;;;18.17;3.63;;;;;;;6.82;65.00;102153.41;343910;28;1065;-65
2021/03/17 00:28:42;;;;;;;18.48;3.58;;;;;;;6.87;65.92;102156.88;344228;28;1150;-68
2021/03/17 00:28:54;;;;;;;18.50;3.55;;;;;;;6.93;66.76;102156.81;345147;28;1880;-67
2021/03/17 00:29:05;;;;;;;18.23;3.38;;;;;;;6.99;67.25;102163.75;345294;28;1133;-67
2021/03/17 00:29:16;;;;;;;17.08;3.25;;;;;;;7.01;67.39;102151.50;345331;28;1164;-67
2021/03/17 00:29:27;;;;;;;18.10;3.38;;;;;;;7.04;67.02;102155.84;345269;28;2020;-68
2021/03/17 00:29:39;;;;;;;20.13;3.47;;;;;;;7.05;67.04;102153.19;345317;28;1038;-68
2021/03/17 00:29:50;;;;;;;20.65;3.67;;;;;;;7.04;66.64;102150.59;345218;28;2349;-67
2021/03/17 00:30:08;;;;;;;20.13;3.85;;;;;;;7.04;66.64;102155.84;345240;28;1196;-66
2021/03/17 00:30:19;;;;;;;18.92;3.60;;;;;;;7.02;65.81;102152.34;342882;28;70930;-62
2021/03/17 00:30:36;;;;;;;19.58;3.45;;;;;;;7.01;65.39;102148.00;344364;28;1673;-65
2021/03/17 00:30:47;;;;;;;23.17;3.65;;;;;;;7.02;65.66;102160.22;341533;28;71261;-67
2021/03/17 00:30:58;;;;;;;22.40;3.63;;;;;;;7.03;66.23;102156.72;343862;28;1103;-67
2021/03/17 00:31:10;;;;;;;20.04;3.34;;;;;;;7.01;66.10;102154.13;343898;28;1107;-64
2021/03/17 00:31:21;;;;;;;19.25;3.15;;;;;;;6.94;65.03;102152.44;343965;28;1134;-68
2021/03/17 00:31:32;;;;;;;18.50;3.15;;;;;;;6.88;64.46;102153.38;343894;28;1194;-67
2021/03/17 00:31:44;;;;;;;18.83;3.28;;;;;;;6.91;65.79;102153.34;343840;28;1402;-68
2021/03/17 00:31:55;;;;;;;20.17;3.42;;;;;;;6.93;66.15;102156.81;343951;28;2028;-67
2021/03/17 00:32:06;;;;;;;19.48;3.50;;;;;;;6.95;65.44;102162.03;343894;28;1134;-68
2021/03/17 00:32:18;;;;;;;18.73;3.53;;;;;;;6.96;66.51;102156.81;343976;28;1494;-68
2021/03/17 00:32:29;;;;;;;16.73;3.42;;;;;;;6.96;65.86;102158.53;343991;28;1156;-70
2021/03/17 00:32:40;;;;;;;18.90;3.53;;;;;;;6.97;66.20;102152.41;343922;28;1111;-69
2021/03/17 00:32:53;;;;;;;17.33;3.22;;;;;;;7.01;66.65;102158.50;344061;28;1181;-69
2021/03/17 00:33:08;;;;;;;16.15;3.30;;;;;;;7.01;66.45;102159.38;344112;28;1077;-69
2021/03/17 00:33:20;;;;;;;22.33;3.70;;;;;;;7.01;66.35;102153.25;342479;28;48829;-68
2021/03/17 00:33:31;;;;;;;22.17;3.47;;;;;;;7.02;66.46;102155.88;343962;28;1077;-69
2021/03/17 00:33:42;;;;;;;18.88;3.42;;;;;;;7.04;66.88;102148.81;343976;28;1049;-69
2021/03/17 00:33:53;;;;;;;18.45;3.50;;;;;;;7.04;67.24;102154.09;343932;28;1895;-69
2021/03/17 00:34:04;;;;;;;20.55;3.78;;;;;;;7.05;66.54;102152.34;344077;28;1070;-69
2021/03/17 00:34:16;;;;;;;18.02;3.68;;;;;;;7.05;67.37;102149.72;343995;28;1022;-67
2021/03/17 00:34:27;;;;;;;17.13;3.50;;;;;;;7.03;66.06;102156.72;343997;28;1093;-69
2021/03/17 00:34:38;;;;;;;17.25;3.40;;;;;;;6.96;65.45;102151.53;343837;28;1104;-69
2021/03/17 00:34:49;;;;;;;17.75;3.40;;;;;;;6.93;65.42;102158.56;343956;28;2103;-69
2021/03/17 00:35:00;;;;;;;18.45;3.45;;;;;;;6.90;65.64;102155.97;343967;28;1090;-69
2021/03/17 00:35:11;;;;;;;18.25;3.25;;;;;;;6.91;66.08;102158.59;343913;28;1135;-69
2021/03/17 00:35:23;;;;;;;17.67;3.45;;;;;;;6.96;65.54;102161.16;343973;28;1288;-68
2021/03/17 00:35:34;;;;;;;15.60;3.22;;;;;;;6.95;65.76;102155.06;343903;28;1106;-68
2021/03/17 00:35:47;;;;;;;16.20;3.30;;;;;;;6.99;66.10;102158.50;343967;28;1144;-69
2021/03/17 00:35:58;;;;;;;18.77;3.47;;;;;;;7.01;66.32;102155.88;343825;28;1083;-68
2021/03/17 00:36:09;;;;;;;20.40;3.55;;;;;;;7.01;66.80;102151.50;342614;28;1062;-69
2021/03/17 00:36:21;;;;;;;19.67;3.53;;;;;;;7.01;66.05;102159.38;342539;28;1127;-69
2021/03/17 00:36:32;;;;;;;18.63;3.70;;;;;;;7.03;67.37;102161.97;342493;28;1055;-69
2021/03/17 00:36:43;;;;;;;19.17;3.70;;;;;;;7.02;66.40;102152.34;342903;28;1085;-69
2021/03/17 00:36:54;;;;;;;18.70;3.78;;;;;;;6.97;66.10;102158.53;343931;28;1252;-68
2021/03/17 00:37:05;;;;;;;18.17;3.42;;;;;;;6.77;64.88;102157.81;342562;28;1222;-69
2021/03/17 00:37:16;;;;;;;20.08;3.45;;;;;;;6.72;64.83;102157.03;342466;28;1213;-67
2021/03/17 00:37:27;;;;;;;21.10;3.63;;;;;;;6.76;65.79;102159.59;342600;28;1131;-68
2021/03/17 00:37:39;;;;;;;21.15;3.60;;;;;;;6.82;66.17;102152.56;342605;28;1082;-69
2021/03/17 00:37:50;;;;;;;19.73;3.60;;;;;;;6.83;65.90;102155.16;342631;28;1158;-68
2021/03/17 00:38:01;;;;;;;18.23;3.40;;;;;;;6.85;65.16;102161.25;341407;28;1176;-67
2021/03/17 00:38:12;;;;;;;20.23;3.50;;;;;;;6.90;66.07;102156.84;342575;28;1174;-70
2021/03/17 00:38:23;;;;;;;20.62;3.54;;;;;;;6.92;66.54;102149.84;341268;29;1082;-69
2021/03/17 00:38:35;;;;;;;20.25;3.63;;;;;;;6.94;66.73;102153.31;341095;29;1137;-68
2021/03/17 00:38:46;;;;;;;19.33;3.65;;;;;;;6.88;65.36;102148.13;341294;29;1052;-68
2021/03/17 00:38:58;;;;;;;19.98;3.70;;;;;;;6.89;65.95;102141.09;341360;28;1063;-69
2021/03/17 00:39:09;;;;;;;19.30;3.45;;;;;;;6.72;65.45;102143.88;342564;28;1052;-68
2021/03/17 00:39:20;;;;;;;19.38;3.33;;;;;;;6.73;65.37;102142.97;342558;28;1139;-69
2021/03/17 00:39:32;;;;;;;16.98;3.15;;;;;;;6.76;65.67;102149.09;342667;28;928;-71
2021/03/17 00:39:43;;;;;;;17.13;3.22;;;;;;;6.81;66.34;102142.94;341252;29;1078;-67
2021/03/17 00:39:54;;;;;;;18.70;3.38;;;;;;;6.84;67.16;102143.78;341483;28;1141;-65
2021/03/17 00:40:07;;;;;;;18.98;3.78;;;;;;;6.86;66.43;102147.25;342570;28;1085;-69
2021/03/17 00:40:19;;;;;;;17.73;3.80;;;;;;;6.91;67.23;102149.81;343005;28;1076;-69
2021/03/17 00:40:31;;;;;;;17.08;3.60;;;;;;;6.92;66.78;102152.47;343958;28;1109;-67
2021/03/17 00:40:42;;;;;;;16.73;3.45;;;;;;;6.90;66.48;102154.22;343871;28;1163;-67
2021/03/17 00:40:53;;;;;;;14.68;3.42;;;;;;;6.93;66.49;102153.31;343838;28;1723;-67
2021/03/17 00:41:04;;;;;;;15.85;3.58;;;;;;;6.99;66.95;102149.75;344955;28;1767;-65
2021/03/17 00:41:16;;;;;;;18.27;3.50;;;;;;;6.98;66.65;102151.53;343940;28;1046;-67
2021/03/17 00:41:27;;;;;;;18.38;3.40;;;;;;;6.84;65.58;102146.41;343931;28;2028;-66
2021/03/17 00:41:38;;;;;;;17.05;3.33;;;;;;;6.75;65.14;102146.47;344238;28;1190;-67
2021/03/17 00:42:04;;;;;;;18.20;3.15;;;;;;;6.42;65.76;102151.97;342834;28;70523;-67
2021/03/17 00:42:15;;;;;;;21.33;3.25;;;;;;;6.45;65.86;102156.31;345197;28;1122;-67
2021/03/17 00:42:27;;;;;;;21.00;3.50;;;;;;;6.51;66.53;102152.78;345275;28;1274;-66
2021/03/17 00:42:38;;;;;;;18.75;3.53;;;;;;;6.53;66.23;102157.16;345223;28;1374;-65
2021/03/17 00:42:49;;;;;;;15.88;3.33;;;;;;;6.61;67.18;102154.47;345307;28;1156;-68
2021/03/17 00:43:00;;;;;;;16.75;3.42;;;;;;;6.64;67.01;102161.47;345228;28;1077;-67
2021/03/17 00:43:11;;;;;;;17.65;3.63;;;;;;;6.64;66.76;102148.34;345300;28;1205;-68
2021/03/17 00:43:23;;;;;;;17.55;3.47;;;;;;;6.66;66.64;102151.78;345367;28;1126;-67
2021/03/17 00:43:34;;;;;;;16.92;3.33;;;;;;;6.70;66.54;102150.88;345347;28;1130;-66
2021/03/17 00:43:45;;;;;;;15.43;3.20;;;;;;;6.61;66.10;102144.84;345382;28;1116;-66
2021/03/17 00:43:57;;;;;;;12.95;2.88;;;;;;;6.41;65.47;102149.38;344988;28;1697;-66
2021/03/17 00:44:08;;;;;;;15.05;2.83;;;;;;;6.41;66.42;102147.59;344082;28;1146;-67
2021/03/17 00:44:19;;;;;;;17.00;3.17;;;;;;;6.48;66.63;102147.56;343796;28;1914;-67
2021/03/17 00:44:30;;;;;;;17.73;3.25;;;;;;;6.56;66.75;102146.63;343934;28;1197;-67
2021/03/17 00:44:42;;;;;;;16.98;3.20;;;;;;;6.59;66.49;102154.50;343856;28;1095;-67
2021/03/17 00:44:53;;;;;;;19.08;3.20;;;;;;;6.60;66.72;102150.97;343804;28;1078;-67
2021/03/17 00:45:05;;;;;;;18.60;3.08;;;;;;;6.68;67.02;102155.31;343921;28;1063;-66
2021/03/17 00:45:16;;;;;;;18.40;3.42;;;;;;;6.71;67.48;102150.00;343943;28;1124;-67
2021/03/17 00:45:27;;;;;;;18.30;3.67;;;;;;;6.72;67.48;102149.13;343903;28;1241;-67
2021/03/17 00:45:39;;;;;;;18.25;3.80;;;;;;;6.69;66.19;102157.91;343850;28;1203;-66
2021/03/17 00:45:50;;;;;;;20.48;3.90;;;;;;;6.66;65.97;102164.94;343860;28;1091;-67
2021/03/17 00:46:02;;;;;;;18.52;3.65;;;;;;;6.71;66.01;102158.75;343954;28;1059;-67
2021/03/17 00:46:14;;;;;;;17.63;3.60;;;;;;;6.75;66.54;102162.22;344031;28;1197;-67
2021/03/17 00:46:26;;;;;;;15.98;3.38;;;;;;;6.75;66.43;102168.34;343999;28;1314;-67
2021/03/17 00:46:37;;;;;;;15.75;3.40;;;;;;;6.78;66.89;102155.19;344000;28;1070;-66
2021/03/17 00:46:48;;;;;;;13.77;3.20;;;;;;;6.77;66.08;102155.19;343995;28;1070;-67
2021/03/17 00:46:59;;;;;;;15.00;3.47;;;;;;;6.70;66.36;102159.63;344021;28;1038;-67
2021/03/17 00:47:11;;;;;;;17.40;3.40;;;;;;;6.64;66.20;102159.69;344054;28;1074;-66
2021/03/17 00:47:22;;;;;;;18.33;3.63;;;;;;;6.62;66.49;102153.56;344021;28;1134;-67
2021/03/17 00:47:33;;;;;;;16.65;3.60;;;;;;;6.69;67.25;102151.75;343954;28;1156;-67
2021/03/17 00:47:45;;;;;;;16.30;3.72;;;;;;;6.70;66.86;102156.16;343844;28;1737;-67
2021/03/17 00:47:58;;;;;;;16.63;3.53;;;;;;;6.66;66.27;102149.19;343859;28;5186;-67
2021/03/17 00:48:09;;;;;;;18.33;3.50;;;;;;;6.57;65.91;102158.00;344080;28;1101;-67
2021/03/17 00:48:20;;;;;;;19.04;3.50;;;;;;;6.56;66.55;102157.13;344063;28;1093;-66
2021/03/17 00:48:31;;;;;;;19.92;3.47;;;;;;;6.61;66.88;102147.47;343988;28;1070;-66
2021/03/17 00:48:42;;;;;;;17.02;3.38;;;;;;;6.68;67.28;102150.03;343910;28;1093;-67
2021/03/17 00:48:53;;;;;;;17.48;3.35;;;;;;;6.67;66.31;102143.03;344059;28;1232;-67
2021/03/17 00:49:04;;;;;;;17.60;3.40;;;;;;;6.70;67.15;102148.25;343994;28;1196;-67
2021/03/17 00:49:16;;;;;;;20.42;3.55;;;;;;;6.73;67.58;102149.13;344017;28;1202;-66
2021/03/17 00:49:27;;;;;;;20.40;3.78;;;;;;;6.75;67.47;102147.34;344017;28;1062;-67
2021/03/17 00:49:38;;;;;;;19.48;3.67;;;;;;;6.69;66.17;102141.25;343895;28;1074;-66
2021/03/17 00:49:49;;;;;;;15.90;3.17;;;;;;;6.65;65.83;102140.44;343853;28;1178;-67
2021/03/17 00:50:00;;;;;;;15.10;2.85;;;;;;;6.67;66.41;102150.91;344053;28;1164;-67
2021/03/17 00:50:14;;;;;;;18.65;3.00;;;;;;;6.67;65.96;102137.78;344025;28;1093;-68
2021/03/17 00:50:25;;;;;;;21.25;3.30;;;;;;;6.69;66.62;102146.50;343910;28;1070;-67
2021/03/17 00:50:37;;;;;;;19.17;3.47;;;;;;;6.73;67.34;102143.88;344044;28;1114;-67
2021/03/17 00:50:48;;;;;;;16.42;3.30;;;;;;;6.74;66.71;102142.09;343941;28;1343;-65
2021/03/17 00:50:59;;;;;;;17.35;3.33;;;;;;;6.75;66.68;102149.09;344036;28;1173;-66
2021/03/17 00:51:11;;;;;;;17.55;3.35;;;;;;;6.69;66.35;102141.25;343965;28;1590;-67
2021/03/17 00:51:22;;;;;;;16.73;3.35;;;;;;;6.69;66.59;102138.63;343880;28;1094;-66
2021/03/17 00:51:33;;;;;;;17.08;3.50;;;;;;;6.68;65.94;102150.03;344014;28;1704;-64
2021/03/17 00:51:44;;;;;;;17.50;3.45;;;;;;;6.72;66.91;102150.00;343912;28;1742;-67
2021/03/17 00:51:55;;;;;;;17.13;3.58;;;;;;;6.75;66.74;102149.97;343925;28;1154;-67
2021/03/17 00:52:06;;;;;;;17.25;3.75;;;;;;;6.78;67.16;102149.94;344007;28;1109;-67
2021/03/17 00:52:17;;;;;;;16.80;3.78;;;;;;;6.80;67.17;102144.69;343783;28;1097;-66
2021/03/17 00:52:28;;;;;;;16.35;3.38;;;;;;;6.79;66.54;102150.81;343873;28;1162;-67
2021/03/17 00:52:40;;;;;;;17.50;3.35;;;;;;;6.77;66.50;102142.97;343963;28;1055;-67
2021/03/17 00:52:56;;;;;;;18.40;3.40;;;;;;;6.68;66.84;102148.28;343899;28;1234;-67
2021/03/17 00:53:07;;;;;;;19.80;3.95;;;;;;;6.71;66.24;102140.38;342237;28;49329;-66
2021/03/17 00:53:19;;;;;;;20.08;4.10;;;;;;;6.79;67.24;102150.81;343970;28;1018;-67
2021/03/17 00:53:30;;;;;;;20.85;3.97;;;;;;;6.84;67.55;102145.50;343958;28;1149;-68
2021/03/17 00:53:41;;;;;;;17.90;3.72;;;;;;;6.89;67.55;102144.59;342613;28;1125;-68
2021/03/17 00:53:53;;;;;;;18.38;3.75;;;;;;;6.91;67.53;102150.72;343325;28;1081;-67
2021/03/17 00:54:04;;;;;;;16.65;3.50;;;;;;;6.88;67.20;102149.84;343972;28;987;-67
2021/03/17 00:54:15;;;;;;;17.70;3.47;;;;;;;6.89;66.99;102147.22;342408;28;1911;-67
2021/03/17 00:54:26;;;;;;;17.20;3.50;;;;;;;6.91;67.99;102148.09;341213;29;1110;-67
2021/03/17 00:54:38;;;;;;;16.52;3.40;;;;;;;6.90;67.76;102140.22;341040;28;1712;-65
2021/03/17 00:54:50;;;;;;;15.63;3.13;;;;;;;6.82;66.16;102139.41;341191;29;1204;-67
2021/03/17 00:55:03;;;;;;;18.08;3.10;;;;;;;6.72;66.31;102141.25;341103;29;1308;-67
2021/03/17 00:55:15;;;;;;;18.92;3.30;;;;;;;6.72;66.88;102142.13;341208;29;2118;-67
2021/03/17 00:55:27;;;;;;;19.42;3.30;;;;;;;6.70;66.65;102141.25;341259;29;1183;-67
2021/03/17 00:55:38;;;;;;;20.95;3.50;;;;;;;6.68;67.20;102131.66;342001;28;1135;-68
2021/03/17 00:55:49;;;;;;;22.33;3.72;;;;;;;6.72;66.75;102143.88;342578;28;1077;-67
2021/03/17 00:56:00;;;;;;;21.65;3.85;;;;;;;6.67;66.18;102141.28;342496;28;1166;-67